This is the latest recevied weather packets stored in our database for station/object HS5XHC-1. If no packets are shown the sender has not sent any weather packets the latest 10 day(s).
| Time | Temp. | Humidity | Pressure | Rain* | Wind** | Luminosity | Snow |
|---|---|---|---|---|---|---|---|
| 1777957190 | 31.67° C | 48% | 970 hPa | - | - | 0 W/m² | - |
| 1777956566 | 31.67° C | 48% | 970 hPa | - | - | 0 W/m² | - |
| 1777955942 | 31.11° C | 50% | 970 hPa | - | - | 0 W/m² | - |
| 1777955318 | 30.56° C | 50% | 970 hPa | - | - | 0 W/m² | - |
| 1777954694 | 30° C | 51% | 970 hPa | - | - | 0 W/m² | - |
| 1777954070 | 30.56° C | 51% | 970 hPa | - | - | 0 W/m² | - |
| 1777953446 | 30.56° C | 49% | 970 hPa | - | - | 0 W/m² | - |
| 1777952822 | 30° C | 53% | 971 hPa | - | - | 0 W/m² | - |
| 1777952198 | 30° C | 53% | 971 hPa | - | - | 0 W/m² | - |
| 1777951574 | 28.89° C | 54% | 971 hPa | - | - | 0 W/m² | - |
| 1777950950 | 29.44° C | 54% | 971 hPa | - | - | 0 W/m² | - |
| 1777950326 | 28.33° C | 55% | 971 hPa | - | - | 0 W/m² | - |
| 1777949702 | 28.33° C | 55% | 971 hPa | - | - | 0 W/m² | - |
| 1777949078 | 28.33° C | 55% | 971 hPa | - | - | 0 W/m² | - |
| 1777948454 | 28.33° C | 56% | 971 hPa | - | - | 0 W/m² | - |
| 1777947830 | 28.33° C | 55% | 971 hPa | - | - | 0 W/m² | - |
| 1777947206 | 28.33° C | 54% | 971 hPa | - | - | 0 W/m² | - |
| 1777946583 | 28.33° C | 54% | 971 hPa | - | - | 0 W/m² | - |
| 1777945959 | 28.33° C | 55% | 971 hPa | - | - | 0 W/m² | - |
| 1777945335 | 27.78° C | 55% | 971 hPa | - | - | 0 W/m² | - |
| 1777944711 | 27.78° C | 56% | 971 hPa | - | - | 0 W/m² | - |
| 1777944087 | 27.22° C | 58% | 971 hPa | - | - | 0 W/m² | - |
| 1777943709 | 26.67° C | 58% | 971 hPa | - | - | 0 W/m² | - |
| 1777943085 | 26.11° C | 61% | 971 hPa | - | - | 0 W/m² | - |
| 1777942461 | 26.67° C | 60% | 971 hPa | - | - | 0 W/m² | - |
* Rain since midnight (hover to see other rain measurements)
** Current wind speed in m/s (hover to see current wind gust speed)